createdAt,value
2022-11-02T00:00:57.723Z,10.20
2022-11-02T00:03:59.208Z,10.28
2022-11-02T00:07:00.712Z,10.33
2022-11-02T00:10:02.238Z,10.37
2022-11-02T00:13:04.124Z,10.41
2022-11-02T00:16:27.560Z,10.51
2022-11-02T00:19:30.075Z,10.55
2022-11-02T00:22:35.670Z,10.54
2022-11-02T00:25:42.202Z,10.56
2022-11-02T00:28:44.038Z,10.63
2022-11-02T00:31:45.529Z,10.66
2022-11-02T00:34:47.031Z,10.65
2022-11-02T00:37:48.576Z,10.62
2022-11-02T00:40:51.690Z,10.57
2022-11-02T00:43:53.189Z,10.58
2022-11-02T00:46:55.547Z,10.56
2022-11-02T00:49:57.453Z,10.52
2022-11-02T00:52:59.012Z,10.43
2022-11-02T00:56:00.622Z,10.37
2022-11-02T00:59:02.158Z,10.33
2022-11-02T01:02:03.793Z,10.26
2022-11-02T01:05:07.183Z,10.25
2022-11-02T01:08:08.705Z,10.28
2022-11-02T01:11:19.899Z,10.36
2022-11-02T01:14:21.887Z,10.45
2022-11-02T01:17:23.455Z,10.49
2022-11-02T01:20:25.010Z,10.52
2022-11-02T01:23:27.024Z,10.53
2022-11-02T01:26:28.575Z,10.55
2022-11-02T01:29:30.148Z,10.61
2022-11-02T01:32:31.815Z,10.65
2022-11-02T01:35:33.337Z,10.68
2022-11-02T01:38:35.235Z,10.68
2022-11-02T01:41:36.717Z,10.62
2022-11-02T01:44:39.959Z,10.58
2022-11-02T01:47:46.833Z,10.53
2022-11-02T01:50:49.488Z,10.52
2022-11-02T01:53:53.351Z,10.57
2022-11-02T01:57:05.321Z,10.60
2022-11-02T02:00:11.028Z,10.63
2022-11-02T02:03:18.328Z,10.65
2022-11-02T02:06:22.162Z,10.71
2022-11-02T02:09:24.512Z,10.74
2022-11-02T02:12:26.753Z,10.76
2022-11-02T02:15:41.358Z,10.78
2022-11-02T02:18:55.687Z,10.77
2022-11-02T02:21:57.263Z,10.73
2022-11-02T02:25:01.652Z,10.66
2022-11-02T02:28:09.058Z,10.58
2022-11-02T02:31:19.363Z,10.51
2022-11-02T02:34:25.216Z,10.50
2022-11-02T02:37:42.964Z,10.52
2022-11-02T02:40:52.265Z,10.55
2022-11-02T02:43:56.205Z,10.58
2022-11-02T02:47:11.266Z,10.59
2022-11-02T02:50:21.606Z,10.63
2022-11-02T02:53:32.438Z,10.66
2022-11-02T02:56:43.790Z,10.65
2022-11-02T02:59:48.689Z,10.66
2022-11-02T03:03:01.557Z,10.66
2022-11-02T03:06:09.201Z,10.63
2022-11-02T03:09:24.404Z,10.59
2022-11-02T03:12:37.647Z,10.62
2022-11-02T03:15:49.723Z,10.59
2022-11-02T03:19:05.197Z,10.54
2022-11-02T03:22:34.899Z,10.52
2022-11-02T03:25:41.935Z,10.49
2022-11-02T03:29:21.902Z,10.44
2022-11-02T03:32:39.279Z,10.33
2022-11-02T03:35:53.308Z,10.25
2022-11-02T03:39:04.638Z,10.20
2022-11-02T03:42:11.712Z,10.26
2022-11-02T03:45:18.639Z,10.34
2022-11-02T03:48:25.755Z,10.42
2022-11-02T03:51:31.071Z,10.85
2022-11-02T03:54:35.162Z,11.10
2022-11-02T03:57:46.428Z,11.20
2022-11-02T04:00:54.546Z,11.12
2022-11-02T04:03:56.639Z,11.07
2022-11-02T04:06:58.230Z,11.03
2022-11-02T04:09:59.750Z,11.05
2022-11-02T04:13:19.895Z,11.01
2022-11-02T04:16:27.620Z,10.84
2022-11-02T04:19:30.043Z,10.76
2022-11-02T04:22:56.207Z,10.72
2022-11-02T04:25:58.205Z,10.69
2022-11-02T04:29:13.099Z,10.71
2022-11-02T04:32:35.635Z,10.78
2022-11-02T04:35:38.547Z,11.03
2022-11-02T04:38:40.503Z,11.10
2022-11-02T04:41:50.442Z,11.25
2022-11-02T04:45:11.750Z,11.29
2022-11-02T04:48:13.498Z,11.26
2022-11-02T04:51:15.622Z,11.30
2022-11-02T04:54:17.094Z,11.28
2022-11-02T04:57:19.198Z,11.41
2022-11-02T05:00:21.948Z,11.41
2022-11-02T05:03:24.332Z,11.42
2022-11-02T05:06:26.502Z,11.47
2022-11-02T05:09:29.488Z,11.48
2022-11-02T05:12:31.107Z,11.42
2022-11-02T05:15:34.507Z,11.35
2022-11-02T05:18:40.787Z,11.30
2022-11-02T05:21:42.545Z,11.36
2022-11-02T05:24:44.179Z,11.45
2022-11-02T05:27:45.972Z,11.46
2022-11-02T05:30:48.586Z,11.44
2022-11-02T05:33:50.181Z,11.47
2022-11-02T05:36:55.306Z,11.45
2022-11-02T05:39:58.193Z,11.39
2022-11-02T05:43:01.108Z,11.31
2022-11-02T05:46:03.801Z,11.25
2022-11-02T05:49:05.374Z,11.17
2022-11-02T05:52:06.814Z,11.18
2022-11-02T05:55:08.576Z,11.20
2022-11-02T05:58:10.090Z,11.21
2022-11-02T06:01:11.749Z,11.21
2022-11-02T06:04:13.281Z,11.23
2022-11-02T06:07:14.914Z,11.15
2022-11-02T06:10:16.711Z,11.17
2022-11-02T06:13:18.257Z,11.21
2022-11-02T06:16:23.475Z,11.30
2022-11-02T06:19:25.164Z,11.39
2022-11-02T06:22:26.694Z,11.47
2022-11-02T06:25:28.606Z,11.56
2022-11-02T06:28:30.974Z,11.62
2022-11-02T06:31:32.613Z,11.68
2022-11-02T06:34:34.216Z,11.75
2022-11-02T06:37:35.827Z,11.80
2022-11-02T06:40:37.369Z,11.87
2022-11-02T06:43:39.077Z,11.90
2022-11-02T06:46:40.586Z,11.97
2022-11-02T06:49:42.208Z,12.01
2022-11-02T06:52:45.187Z,12.04
2022-11-02T06:55:54.912Z,12.07
2022-11-02T06:58:56.433Z,12.13
2022-11-02T07:01:58.116Z,12.16
2022-11-02T07:04:59.930Z,12.23
2022-11-02T07:08:01.842Z,12.30
2022-11-02T07:11:03.807Z,12.31
2022-11-02T07:14:05.386Z,12.26
2022-11-02T07:17:07.180Z,12.21
2022-11-02T07:20:10.696Z,12.17
2022-11-02T07:23:12.420Z,12.19
2022-11-02T07:26:13.960Z,12.18
2022-11-02T07:29:18.962Z,12.15
2022-11-02T07:32:20.479Z,12.16
2022-11-02T07:35:22.479Z,12.21
2022-11-02T07:38:24.017Z,12.26
2022-11-02T07:41:25.637Z,12.36
2022-11-02T07:44:27.142Z,12.47
2022-11-02T07:47:30.151Z,12.63
2022-11-02T07:50:31.762Z,12.68
2022-11-02T07:53:33.871Z,12.84
2022-11-02T07:56:35.495Z,12.97
2022-11-02T07:59:37.060Z,13.02
2022-11-02T08:02:39.345Z,13.21
2022-11-02T08:05:42.822Z,13.24
2022-11-02T08:08:44.407Z,13.22
2022-11-02T08:11:45.956Z,13.22
2022-11-02T08:14:47.525Z,13.20
2022-11-02T08:17:59.974Z,13.18
2022-11-02T08:21:01.675Z,13.16
2022-11-02T08:24:03.387Z,13.27
2022-11-02T08:27:04.932Z,13.36
2022-11-02T08:30:07.027Z,13.65
2022-11-02T08:33:13.435Z,13.95
2022-11-02T08:36:15.129Z,14.15
2022-11-02T08:39:19.035Z,14.38
2022-11-02T08:42:20.856Z,14.61
2022-11-02T08:45:22.470Z,14.62
2022-11-02T08:48:24.109Z,14.58
2022-11-02T08:51:25.620Z,14.55
2022-11-02T08:54:31.617Z,14.50
2022-11-02T08:57:33.512Z,14.56
2022-11-02T09:00:35.520Z,14.57
2022-11-02T09:04:02.705Z,14.55
2022-11-02T09:07:04.206Z,14.69
2022-11-02T09:10:05.999Z,14.86
2022-11-02T09:13:09.989Z,14.95
2022-11-02T09:16:11.490Z,14.94
2022-11-02T09:19:13.010Z,15.02
2022-11-02T09:22:14.534Z,15.11
2022-11-02T09:25:16.847Z,15.25
2022-11-02T09:28:18.448Z,15.07
2022-11-02T09:31:20.000Z,14.99
2022-11-02T09:34:21.586Z,14.88
2022-11-02T09:37:23.087Z,14.90
2022-11-02T09:40:36.846Z,15.05
2022-11-02T09:44:01.818Z,15.17
2022-11-02T09:47:55.749Z,15.18
2022-11-02T09:50:40.038Z,15.16
2022-11-02T09:53:45.127Z,15.30
2022-11-02T09:56:48.375Z,15.38
2022-11-02T09:59:49.885Z,15.28
2022-11-02T10:03:06.162Z,15.25
2022-11-02T10:06:19.238Z,15.24
2022-11-02T10:09:57.743Z,15.09
2022-11-02T10:13:25.474Z,14.97
2022-11-02T10:16:39.958Z,14.91
2022-11-02T10:19:48.287Z,14.96
2022-11-02T10:22:49.890Z,14.96
2022-11-02T10:25:51.795Z,15.03
2022-11-02T10:29:06.701Z,15.08
2022-11-02T10:32:13.719Z,15.12
2022-11-02T10:35:51.427Z,15.09
2022-11-02T10:39:11.257Z,14.93
2022-11-02T10:42:31.658Z,14.83
2022-11-02T10:45:55.775Z,14.80
2022-11-02T10:49:18.817Z,14.60
2022-11-02T10:52:20.489Z,14.52
2022-11-02T10:55:41.251Z,14.54
2022-11-02T10:59:12.822Z,14.55
2022-11-02T11:02:15.466Z,14.50
2022-11-02T11:05:19.379Z,14.42
2022-11-02T11:08:29.565Z,14.34
2022-11-02T11:11:35.678Z,14.22
2022-11-02T11:21:37.318Z,14.39
2022-11-02T11:24:38.895Z,14.54
2022-11-02T11:27:51.743Z,14.68
2022-11-02T11:31:12.159Z,14.76
2022-11-02T11:34:35.666Z,14.73
2022-11-02T11:37:54.479Z,14.88
2022-11-02T11:40:59.503Z,14.93
2022-11-02T11:44:02.736Z,15.08
2022-11-02T11:47:04.823Z,15.19
2022-11-02T11:50:23.928Z,15.19
2022-11-02T11:53:28.743Z,15.34
2022-11-02T11:56:30.297Z,15.38
2022-11-02T11:59:43.769Z,15.45
2022-11-02T12:03:03.444Z,15.53
2022-11-02T12:06:45.971Z,15.59
2022-11-02T12:10:08.611Z,15.64
2022-11-02T12:13:51.561Z,15.48
2022-11-02T12:17:19.551Z,15.18
2022-11-02T12:20:52.453Z,15.27
2022-11-02T12:24:23.463Z,15.46
2022-11-02T12:27:49.503Z,15.43
2022-11-02T12:31:22.896Z,15.44
2022-11-02T12:35:23.006Z,15.42
2022-11-02T12:38:38.539Z,15.57
2022-11-02T12:41:52.745Z,15.51
2022-11-02T12:45:25.357Z,15.36
2022-11-02T12:48:47.602Z,15.14
2022-11-02T12:52:25.090Z,15.28
2022-11-02T12:55:38.204Z,15.32
2022-11-02T12:58:41.352Z,15.32
2022-11-02T13:01:46.991Z,15.42
2022-11-02T13:05:05.766Z,15.57
2022-11-02T13:08:22.487Z,15.59
2022-11-02T13:11:31.771Z,15.52
2022-11-02T13:14:46.475Z,15.51
2022-11-02T13:17:53.111Z,15.42
2022-11-02T13:21:01.142Z,15.46
2022-11-02T13:24:04.752Z,15.56
2022-11-02T13:27:35.264Z,15.61
2022-11-02T13:30:39.643Z,15.50
2022-11-02T13:33:48.491Z,15.53
2022-11-02T13:36:50.081Z,15.56
2022-11-02T13:39:59.583Z,15.65
2022-11-02T13:43:07.205Z,15.69
2022-11-02T13:46:39.809Z,15.77
2022-11-02T13:49:51.659Z,15.90
2022-11-02T13:53:05.157Z,15.85
2022-11-02T13:56:20.786Z,15.73
2022-11-02T13:59:44.467Z,15.85
2022-11-02T14:02:46.225Z,15.86
2022-11-02T14:05:49.923Z,15.74
2022-11-02T14:09:04.502Z,15.61
2022-11-02T14:12:21.361Z,15.67
2022-11-02T14:15:22.871Z,15.67
2022-11-02T14:18:30.842Z,15.71
2022-11-02T14:21:44.583Z,15.88
2022-11-02T14:24:46.102Z,16.18
2022-11-02T14:27:47.807Z,16.35
2022-11-02T14:30:52.382Z,16.44
2022-11-02T14:34:35.606Z,16.16
2022-11-02T14:37:49.036Z,16.39
2022-11-02T14:40:50.463Z,17.41
2022-11-02T14:43:57.775Z,18.24
2022-11-02T14:47:12.501Z,18.72
2022-11-02T14:50:18.699Z,18.89
2022-11-02T14:53:29.680Z,18.20
2022-11-02T14:56:49.503Z,17.24
2022-11-02T14:59:55.315Z,16.35
2022-11-02T15:02:57.950Z,15.84
2022-11-02T15:06:11.842Z,15.58
2022-11-02T15:09:15.544Z,15.38
2022-11-02T15:12:41.181Z,15.16
2022-11-02T15:15:42.806Z,15.02
2022-11-02T15:18:44.390Z,14.97
2022-11-02T15:21:45.994Z,14.88
2022-11-02T15:24:49.246Z,14.78
2022-11-02T15:27:54.730Z,14.68
2022-11-02T15:31:01.698Z,14.57
2022-11-02T15:34:12.062Z,14.44
2022-11-02T15:37:50.284Z,14.26
2022-11-02T15:41:06.072Z,14.15
2022-11-02T15:44:47.517Z,14.00
2022-11-02T15:47:58.243Z,13.80
2022-11-02T15:51:02.631Z,13.60
2022-11-02T15:54:30.428Z,13.41
2022-11-02T15:58:10.474Z,13.22
2022-11-02T16:01:26.370Z,13.02
2022-11-02T16:04:28.969Z,12.84
2022-11-02T16:07:38.425Z,12.68
2022-11-02T16:11:02.627Z,12.47
2022-11-02T16:14:18.043Z,12.25
2022-11-02T16:17:20.330Z,12.05
2022-11-02T16:20:28.369Z,11.89
2022-11-02T16:23:42.278Z,11.73
2022-11-02T16:26:46.221Z,11.62
2022-11-02T16:29:49.684Z,11.49
2022-11-02T16:33:00.541Z,11.35
2022-11-02T16:36:02.606Z,11.25
2022-11-02T16:39:13.062Z,11.18
2022-11-02T16:42:22.887Z,11.10
2022-11-02T16:45:48.974Z,11.01
2022-11-02T16:49:15.096Z,10.95
2022-11-02T16:52:16.680Z,10.86
2022-11-02T16:55:45.686Z,10.78
2022-11-02T16:58:49.139Z,10.69
2022-11-02T17:01:51.233Z,10.59
2022-11-02T17:04:59.247Z,10.52
2022-11-02T17:08:10.283Z,10.44
2022-11-02T17:11:15.971Z,10.31
2022-11-02T17:14:20.274Z,10.23
2022-11-02T17:17:24.497Z,10.16
2022-11-02T17:20:26.400Z,10.07
2022-11-02T17:23:34.255Z,10.06
2022-11-02T17:26:37.560Z,9.99
2022-11-02T17:29:40.543Z,9.96
2022-11-02T17:32:43.087Z,9.89
2022-11-02T17:35:49.369Z,9.76
2022-11-02T17:38:51.605Z,9.72
2022-11-02T17:42:13.839Z,9.57
2022-11-02T17:45:21.146Z,9.57
2022-11-02T17:48:24.547Z,9.52
2022-11-02T17:51:26.262Z,9.48
2022-11-02T17:54:28.680Z,9.45
2022-11-02T17:57:31.374Z,9.33
2022-11-02T18:00:35.426Z,9.29
2022-11-02T18:03:37.276Z,9.25
2022-11-02T18:06:41.589Z,9.25
2022-11-02T18:09:43.648Z,9.20
2022-11-02T18:12:45.271Z,9.10
2022-11-02T18:15:47.394Z,9.05
2022-11-02T18:18:48.881Z,9.00
2022-11-02T18:21:50.407Z,8.90
2022-11-02T18:24:52.016Z,8.88
2022-11-02T18:27:53.924Z,8.82
2022-11-02T18:30:55.446Z,8.79
2022-11-02T18:33:57.900Z,8.76
2022-11-02T18:36:59.440Z,8.75
2022-11-02T18:40:00.959Z,8.70
2022-11-02T18:43:02.682Z,8.64
2022-11-02T18:46:04.485Z,8.63
2022-11-02T18:49:06.037Z,8.61
2022-11-02T18:52:07.646Z,8.59
2022-11-02T18:55:09.155Z,8.60
2022-11-02T18:58:11.676Z,8.57
2022-11-02T19:01:13.398Z,8.52
2022-11-02T19:04:17.539Z,8.50
2022-11-02T19:07:38.196Z,8.47
2022-11-02T19:10:47.446Z,8.43
2022-11-02T19:13:48.927Z,8.33
2022-11-02T19:16:50.447Z,8.32
2022-11-02T19:19:52.175Z,8.32
2022-11-02T19:22:54.709Z,8.28
2022-11-02T19:25:56.374Z,8.18
2022-11-02T19:29:01.393Z,8.04
2022-11-02T19:32:06.647Z,8.00
2022-11-02T19:35:08.227Z,7.97
2022-11-02T19:38:09.822Z,7.97
2022-11-02T19:41:14.305Z,7.83
2022-11-02T19:44:15.868Z,7.82
2022-11-02T19:47:17.345Z,7.81
2022-11-02T19:50:18.889Z,7.76
2022-11-02T19:53:20.434Z,7.75
2022-11-02T19:56:23.056Z,7.74
2022-11-02T19:59:24.668Z,7.72
2022-11-02T20:02:26.237Z,7.71
2022-11-02T20:05:27.943Z,7.68
2022-11-02T20:08:29.700Z,7.66
2022-11-02T20:11:31.972Z,7.62
2022-11-02T20:14:38.219Z,7.53
2022-11-02T20:17:58.311Z,7.48
2022-11-02T20:21:09.617Z,7.49
2022-11-02T20:24:11.728Z,7.44
2022-11-02T20:27:13.949Z,7.42
2022-11-02T20:30:15.612Z,7.38
2022-11-02T20:33:17.071Z,7.38
2022-11-02T20:36:18.588Z,7.35
2022-11-02T20:39:20.812Z,7.31
2022-11-02T20:42:22.314Z,7.30
2022-11-02T20:45:24.667Z,7.24
2022-11-02T20:48:26.140Z,7.27
2022-11-02T20:51:27.737Z,7.30
2022-11-02T20:54:29.968Z,7.31
2022-11-02T20:57:34.572Z,7.27
2022-11-02T21:00:36.169Z,7.20
2022-11-02T21:03:38.159Z,7.21
2022-11-02T21:06:39.832Z,7.20
2022-11-02T21:09:41.357Z,7.18
2022-11-02T21:13:01.452Z,7.12
2022-11-02T21:16:03.718Z,7.12
2022-11-02T21:19:05.272Z,7.07
2022-11-02T21:22:06.963Z,7.08
2022-11-02T21:25:09.595Z,7.00
2022-11-02T21:28:11.315Z,6.94
2022-11-02T21:31:16.456Z,6.95
2022-11-02T21:34:18.036Z,6.97
2022-11-02T21:37:19.493Z,6.94
2022-11-02T21:40:21.018Z,6.89
2022-11-02T21:43:22.475Z,6.79
2022-11-02T21:46:26.728Z,6.67
2022-11-02T21:49:29.355Z,6.71
2022-11-02T21:52:31.214Z,6.68
2022-11-02T21:55:32.747Z,6.70
2022-11-02T21:58:34.982Z,6.66
2022-11-02T22:01:46.890Z,6.58
2022-11-02T22:04:53.422Z,6.57
2022-11-02T22:08:13.516Z,6.55
2022-11-02T22:11:21.431Z,6.54
2022-11-02T22:14:22.940Z,6.50
2022-11-02T22:17:50.729Z,6.49
2022-11-02T22:20:53.835Z,6.47
2022-11-02T22:23:56.585Z,6.43
2022-11-02T22:26:58.078Z,6.40
2022-11-02T22:29:59.611Z,6.35
2022-11-02T22:33:01.133Z,6.32
2022-11-02T22:36:10.719Z,6.29
2022-11-02T22:39:13.751Z,6.32
2022-11-02T22:42:15.238Z,6.31
2022-11-02T22:45:16.754Z,6.28
2022-11-02T22:51:27.301Z,6.22
2022-11-02T22:54:31.111Z,6.22
2022-11-02T22:57:32.624Z,6.20
2022-11-02T23:00:34.098Z,6.19
2022-11-02T23:03:36.851Z,6.20
2022-11-02T23:06:38.724Z,6.19
2022-11-02T23:09:40.277Z,6.17
2022-11-02T23:12:41.755Z,6.17
2022-11-02T23:15:43.302Z,6.12
2022-11-02T23:19:03.327Z,6.10
2022-11-02T23:22:25.238Z,6.10
2022-11-02T23:25:26.705Z,6.08
2022-11-02T23:28:46.660Z,6.05
2022-11-02T23:32:06.580Z,5.98
2022-11-02T23:35:26.941Z,5.90
2022-11-02T23:38:47.281Z,5.87
2022-11-02T23:41:48.803Z,5.86
2022-11-02T23:44:50.385Z,5.86
2022-11-02T23:47:57.594Z,5.85
2022-11-02T23:51:18.065Z,5.81
2022-11-02T23:54:38.219Z,5.70
2022-11-02T23:57:39.731Z,5.68
